createdAt,value
2018-06-11T00:01:27.674Z,94.70
2018-06-11T00:03:56.659Z,94.60
2018-06-11T00:06:25.658Z,94.70
2018-06-11T00:08:54.552Z,94.50
2018-06-11T00:11:23.533Z,95.00
2018-06-11T00:13:52.631Z,95.00
2018-06-11T00:16:21.481Z,95.00
2018-06-11T00:18:50.433Z,95.40
2018-06-11T00:21:19.096Z,95.20
2018-06-11T00:23:48.008Z,95.20
2018-06-11T00:26:17.248Z,95.00
2018-06-11T00:28:46.186Z,95.20
2018-06-11T00:31:15.414Z,95.00
2018-06-11T00:33:44.276Z,94.80
2018-06-11T00:36:13.162Z,94.70
2018-06-11T00:38:42.397Z,94.60
2018-06-11T00:41:11.490Z,94.40
2018-06-11T00:43:40.571Z,94.70
2018-06-11T00:46:09.444Z,94.20
2018-06-11T00:48:38.354Z,94.60
2018-06-11T00:51:07.022Z,94.30
2018-06-11T00:53:35.833Z,94.50
2018-06-11T00:56:10.384Z,94.90
2018-06-11T00:58:39.534Z,94.70
2018-06-11T01:01:08.629Z,94.60
2018-06-11T01:03:37.518Z,94.20
2018-06-11T01:06:06.360Z,93.80
2018-06-11T01:08:35.303Z,93.70
2018-06-11T01:11:04.259Z,94.00
2018-06-11T01:13:32.925Z,94.30
2018-06-11T01:18:33.427Z,94.80
2018-06-11T01:21:02.461Z,94.90
2018-06-11T01:23:31.290Z,94.50
2018-06-11T01:26:00.225Z,94.50
2018-06-11T01:28:29.059Z,94.60
2018-06-11T01:30:58.014Z,94.50
2018-06-11T01:33:26.753Z,94.80
2018-06-11T01:35:55.605Z,95.00
2018-06-11T01:38:24.660Z,94.80
2018-06-11T01:40:53.493Z,94.80
2018-06-11T01:43:22.281Z,94.90
2018-06-11T01:45:51.226Z,94.90
2018-06-11T01:48:20.184Z,94.50
2018-06-11T01:50:49.023Z,94.70
2018-06-11T01:53:17.903Z,94.80
2018-06-11T01:55:46.871Z,94.60
2018-06-11T01:58:15.787Z,94.60
2018-06-11T02:00:44.789Z,94.50
2018-06-11T02:03:13.567Z,94.40
2018-06-11T02:05:42.611Z,94.40
2018-06-11T02:08:11.554Z,94.00
2018-06-11T02:10:40.348Z,94.30
2018-06-11T02:13:09.286Z,94.30
2018-06-11T02:15:38.234Z,94.20
2018-06-11T02:18:07.324Z,93.90
2018-06-11T02:20:36.165Z,94.10
2018-06-11T02:23:04.887Z,94.40
2018-06-11T02:25:34.137Z,94.10
2018-06-11T02:28:03.765Z,94.00
2018-06-11T02:30:32.634Z,94.00
2018-06-11T02:33:01.627Z,94.30
2018-06-11T02:37:59.115Z,94.30
2018-06-11T02:40:27.909Z,94.50
2018-06-11T02:42:56.620Z,94.40
2018-06-11T02:45:25.690Z,94.50
2018-06-11T02:47:54.884Z,94.20
2018-06-11T02:50:24.253Z,94.40
2018-06-11T02:52:53.030Z,94.10
2018-06-11T02:55:21.871Z,94.00
2018-06-11T02:57:50.781Z,94.30
2018-06-11T03:00:19.633Z,94.40
2018-06-11T03:02:48.682Z,94.20
2018-06-11T03:07:46.086Z,94.40
2018-06-11T03:10:15.372Z,94.40
2018-06-11T03:12:44.145Z,94.70
2018-06-11T03:15:12.918Z,94.40
2018-06-11T03:17:41.687Z,94.80
2018-06-11T03:20:10.331Z,94.60
2018-06-11T03:22:39.148Z,94.60
2018-06-11T03:25:07.889Z,94.60
2018-06-11T03:27:36.674Z,95.00
2018-06-11T03:30:05.483Z,94.60
2018-06-11T03:32:34.259Z,94.50
2018-06-11T03:35:03.043Z,94.60
2018-06-11T03:37:31.773Z,94.60
2018-06-11T03:40:00.533Z,94.40
2018-06-11T03:42:29.546Z,94.40
2018-06-11T03:44:58.224Z,94.20
2018-06-11T03:47:26.967Z,94.00
2018-06-11T03:49:55.780Z,93.90
2018-06-11T03:52:24.482Z,93.90
2018-06-11T03:54:53.456Z,93.60
2018-06-11T03:57:22.252Z,93.50
2018-06-11T03:59:50.977Z,93.20
2018-06-11T04:02:20.127Z,93.00
2018-06-11T04:04:48.867Z,93.00
2018-06-11T04:07:17.786Z,92.60
2018-06-11T04:09:46.687Z,92.50
2018-06-11T04:12:15.525Z,93.20
2018-06-11T04:14:44.273Z,93.30
2018-06-11T04:17:13.017Z,93.20
2018-06-11T04:19:41.746Z,92.60
2018-06-11T04:22:10.663Z,92.40
2018-06-11T04:24:39.473Z,92.30
2018-06-11T04:27:08.192Z,92.70
2018-06-11T04:29:37.066Z,93.10
2018-06-11T04:32:06.017Z,92.80
2018-06-11T04:34:34.812Z,93.00
2018-06-11T04:37:03.602Z,92.30
2018-06-11T04:39:32.322Z,92.10
2018-06-11T04:42:01.154Z,92.10
2018-06-11T04:44:29.894Z,92.30
2018-06-11T04:46:58.785Z,92.00
2018-06-11T04:49:27.786Z,92.10
2018-06-11T04:51:56.657Z,91.70
2018-06-11T04:54:25.648Z,91.30
2018-06-11T04:56:54.451Z,91.50
2018-06-11T04:59:23.311Z,91.30
2018-06-11T05:01:52.078Z,91.10
2018-06-11T05:04:20.887Z,91.00
2018-06-11T05:06:49.593Z,91.40
2018-06-11T05:09:18.363Z,90.80
2018-06-11T05:11:47.844Z,91.00
2018-06-11T05:14:17.145Z,91.10
2018-06-11T05:16:51.146Z,91.00
2018-06-11T05:19:24.757Z,91.10
2018-06-11T05:21:53.479Z,90.70
2018-06-11T05:24:22.266Z,91.00
2018-06-11T05:26:50.963Z,90.80
2018-06-11T05:29:19.680Z,91.30
2018-06-11T05:34:16.866Z,90.50
2018-06-11T05:36:45.689Z,90.20
2018-06-11T05:39:14.510Z,90.60
2018-06-11T05:41:43.256Z,91.00
2018-06-11T05:44:11.942Z,90.90
2018-06-11T05:46:40.844Z,90.50
2018-06-11T05:49:09.580Z,90.10
2018-06-11T05:51:38.329Z,90.60
2018-06-11T05:54:07.097Z,90.60
2018-06-11T05:56:35.781Z,90.70
2018-06-11T05:59:04.690Z,90.60
2018-06-11T06:01:33.376Z,90.50
2018-06-11T06:04:02.122Z,90.90
2018-06-11T06:06:30.852Z,90.70
2018-06-11T06:08:59.576Z,90.10
2018-06-11T06:11:28.284Z,90.20
2018-06-11T06:13:57.816Z,90.30
2018-06-11T06:16:26.567Z,89.30
2018-06-11T06:18:55.316Z,89.80
2018-06-11T06:21:24.096Z,89.60
2018-06-11T06:23:52.802Z,90.00
2018-06-11T06:26:21.546Z,89.60
2018-06-11T06:28:50.336Z,89.90
2018-06-11T06:31:19.048Z,88.80
2018-06-11T06:33:47.789Z,88.50
2018-06-11T06:36:16.514Z,88.10
2018-06-11T06:38:45.246Z,88.50
2018-06-11T06:41:14.022Z,88.40
2018-06-11T06:43:42.758Z,88.30
2018-06-11T06:46:11.550Z,87.70
2018-06-11T06:48:40.346Z,88.50
2018-06-11T06:51:09.280Z,88.50
2018-06-11T06:53:38.052Z,88.20
2018-06-11T06:56:06.807Z,88.00
2018-06-11T06:58:35.958Z,88.60
2018-06-11T07:01:04.781Z,86.50
2018-06-11T07:03:33.552Z,86.20
2018-06-11T07:06:02.358Z,86.50
2018-06-11T07:08:31.139Z,84.60
2018-06-11T07:10:59.767Z,84.40
2018-06-11T07:13:28.432Z,84.40
2018-06-11T07:15:57.183Z,83.70
2018-06-11T07:18:25.826Z,82.00
2018-06-11T07:20:54.767Z,82.00
2018-06-11T07:23:23.466Z,82.10
2018-06-11T07:25:52.154Z,80.70
2018-06-11T07:28:20.944Z,81.60
2018-06-11T07:30:49.709Z,81.30
2018-06-11T07:33:18.396Z,81.40
2018-06-11T07:35:47.204Z,80.50
2018-06-11T07:38:15.939Z,81.10
2018-06-11T07:40:44.596Z,82.00
2018-06-11T07:43:13.279Z,81.90
2018-06-11T07:45:41.994Z,80.20
2018-06-11T07:48:10.764Z,81.60
2018-06-11T07:50:39.456Z,81.40
2018-06-11T07:53:08.161Z,81.50
2018-06-11T07:55:36.924Z,82.30
2018-06-11T07:58:05.675Z,81.50
2018-06-11T08:00:34.352Z,81.30
2018-06-11T08:03:03.083Z,81.70
2018-06-11T08:05:31.780Z,81.30
2018-06-11T08:08:00.554Z,81.40
2018-06-11T08:10:29.279Z,80.90
2018-06-11T08:12:58.064Z,80.50
2018-06-11T08:15:26.864Z,80.90
2018-06-11T08:17:55.550Z,80.10
2018-06-11T08:20:24.335Z,79.90
2018-06-11T08:22:53.111Z,80.50
2018-06-11T08:25:21.810Z,80.60
2018-06-11T08:27:50.587Z,81.00
2018-06-11T08:30:19.460Z,80.70
2018-06-11T08:32:48.280Z,82.10
2018-06-11T08:35:17.203Z,81.50
2018-06-11T08:37:45.940Z,80.50
2018-06-11T08:40:14.893Z,81.10
2018-06-11T08:42:43.677Z,81.10
2018-06-11T08:45:12.661Z,81.20
2018-06-11T08:47:41.817Z,81.70
2018-06-11T08:50:12.106Z,82.30
2018-06-11T08:52:41.338Z,82.20
2018-06-11T08:55:10.086Z,82.40
2018-06-11T08:57:38.949Z,82.40
2018-06-11T09:00:08.215Z,81.40
2018-06-11T09:02:37.314Z,81.50
2018-06-11T09:05:06.271Z,82.40
2018-06-11T09:07:34.990Z,82.10
2018-06-11T09:10:04.332Z,82.70
2018-06-11T09:15:01.648Z,82.00
2018-06-11T09:17:30.557Z,81.50
2018-06-11T09:19:59.198Z,81.40
2018-06-11T09:22:27.923Z,80.50
2018-06-11T09:24:56.770Z,79.80
2018-06-11T09:27:25.556Z,80.10
2018-06-11T09:29:54.341Z,80.20
2018-06-11T09:32:23.122Z,79.80
2018-06-11T09:34:51.904Z,79.70
2018-06-11T09:37:20.732Z,80.00
2018-06-11T09:39:49.449Z,79.40
2018-06-11T09:42:18.239Z,80.00
2018-06-11T09:44:46.973Z,79.20
2018-06-11T09:47:15.727Z,79.30
2018-06-11T09:49:44.870Z,79.70
2018-06-11T09:52:13.688Z,79.00
2018-06-11T09:54:42.463Z,79.50
2018-06-11T09:59:39.547Z,79.20
2018-06-11T10:02:08.321Z,80.00
2018-06-11T10:04:37.028Z,80.30
2018-06-11T10:07:05.850Z,79.70
2018-06-11T10:09:34.695Z,79.40
2018-06-11T10:12:03.453Z,80.60
2018-06-11T10:14:32.392Z,79.00
2018-06-11T10:17:01.086Z,79.50
2018-06-11T10:19:29.980Z,79.50
2018-06-11T10:21:58.775Z,78.20
2018-06-11T10:24:27.568Z,77.20
2018-06-11T10:26:56.293Z,77.60
2018-06-11T10:29:24.984Z,78.20
2018-06-11T10:31:53.749Z,77.90
2018-06-11T10:34:22.480Z,78.70
2018-06-11T10:36:51.249Z,78.50
2018-06-11T10:39:20.132Z,78.50
2018-06-11T10:41:48.818Z,78.70
2018-06-11T10:44:17.535Z,79.00
2018-06-11T10:46:46.383Z,79.10
2018-06-11T10:49:15.124Z,78.00
2018-06-11T10:51:43.989Z,77.80
2018-06-11T10:54:13.701Z,78.50
2018-06-11T10:56:42.399Z,78.50
2018-06-11T10:59:11.035Z,78.70
2018-06-11T11:01:39.996Z,78.00
2018-06-11T11:04:08.887Z,77.60
2018-06-11T11:06:37.692Z,76.70
2018-06-11T11:09:07.387Z,77.40
2018-06-11T11:11:36.404Z,77.60
2018-06-11T11:14:05.373Z,77.60
2018-06-11T11:16:34.258Z,78.00
2018-06-11T11:19:03.053Z,78.40
2018-06-11T11:21:31.778Z,76.30
2018-06-11T11:24:00.887Z,76.50
2018-06-11T11:26:29.625Z,76.90
2018-06-11T11:28:58.518Z,76.80
2018-06-11T11:31:27.611Z,76.70
2018-06-11T11:33:56.553Z,75.90
2018-06-11T11:36:25.396Z,75.60
2018-06-11T11:38:54.287Z,76.00
2018-06-11T11:41:23.265Z,76.90
2018-06-11T11:43:52.293Z,76.50
2018-06-11T11:46:21.271Z,76.10
2018-06-11T11:48:50.094Z,76.20
2018-06-11T11:51:19.036Z,76.00
2018-06-11T11:53:47.738Z,77.60
2018-06-11T11:56:16.382Z,75.70
2018-06-11T11:58:45.081Z,76.20
2018-06-11T12:01:13.753Z,75.70
2018-06-11T12:03:42.548Z,75.60
2018-06-11T12:06:11.352Z,76.50
2018-06-11T12:08:40.119Z,76.80
2018-06-11T12:11:09.077Z,77.60
2018-06-11T12:13:37.775Z,77.60
2018-06-11T12:16:06.615Z,78.10
2018-06-11T12:18:35.410Z,78.40
2018-06-11T12:21:04.105Z,77.20
2018-06-11T12:23:32.852Z,76.20
2018-06-11T12:26:01.626Z,75.70
2018-06-11T12:28:30.308Z,75.50
2018-06-11T12:30:59.016Z,75.90
2018-06-11T12:33:27.738Z,75.80
2018-06-11T12:35:56.574Z,75.50
2018-06-11T12:38:25.267Z,75.10
2018-06-11T12:40:54.052Z,74.70
2018-06-11T12:43:22.804Z,75.30
2018-06-11T12:45:51.556Z,73.90
2018-06-11T12:48:20.304Z,73.20
2018-06-11T12:50:49.170Z,73.90
2018-06-11T12:53:18.090Z,72.70
2018-06-11T12:55:47.091Z,73.10
2018-06-11T12:58:15.970Z,73.10
2018-06-11T13:00:44.768Z,73.30
2018-06-11T13:03:13.573Z,73.00
2018-06-11T13:05:45.133Z,73.60
2018-06-11T13:08:13.813Z,73.90
2018-06-11T13:10:42.664Z,74.30
2018-06-11T13:13:11.383Z,74.10
2018-06-11T13:15:40.084Z,73.40
2018-06-11T13:18:08.909Z,73.60
2018-06-11T13:20:37.635Z,73.60
2018-06-11T13:23:06.520Z,73.80
2018-06-11T13:25:35.406Z,73.40
2018-06-11T13:28:05.709Z,73.90
2018-06-11T13:30:34.620Z,72.90
2018-06-11T13:33:03.319Z,73.10
2018-06-11T13:35:31.997Z,72.90
2018-06-11T13:38:00.750Z,72.80
2018-06-11T13:40:29.508Z,72.60
2018-06-11T13:42:58.229Z,72.90
2018-06-11T13:45:26.997Z,72.10
2018-06-11T13:47:55.912Z,72.40
2018-06-11T13:50:24.586Z,72.30
2018-06-11T13:52:53.315Z,73.00
2018-06-11T13:55:22.096Z,72.20
2018-06-11T13:57:50.781Z,71.60
2018-06-11T14:00:19.571Z,70.80
2018-06-11T14:02:48.583Z,71.00
2018-06-11T14:05:17.383Z,71.30
2018-06-11T14:07:46.109Z,71.40
2018-06-11T14:10:14.881Z,71.00
2018-06-11T14:12:43.614Z,71.30
2018-06-11T14:15:12.337Z,71.40
2018-06-11T14:17:41.073Z,71.00
2018-06-11T14:20:09.893Z,69.40
2018-06-11T14:22:38.611Z,69.00
2018-06-11T14:25:08.478Z,69.00
2018-06-11T14:27:38.091Z,69.30
2018-06-11T14:30:07.853Z,68.50
2018-06-11T14:32:36.637Z,68.90
2018-06-11T14:35:05.372Z,68.80
2018-06-11T14:37:34.193Z,69.30
2018-06-11T14:40:02.972Z,69.70
2018-06-11T14:42:31.721Z,69.70
2018-06-11T14:45:02.083Z,69.60
2018-06-11T14:47:30.808Z,69.60
2018-06-11T14:50:06.260Z,69.70
2018-06-11T14:52:41.959Z,69.60
2018-06-11T14:55:11.868Z,69.80
2018-06-11T14:57:40.668Z,69.40
2018-06-11T15:00:17.528Z,69.40
2018-06-11T15:02:47.233Z,69.60
2018-06-11T15:05:16.566Z,68.80
2018-06-11T15:07:45.503Z,69.70
2018-06-11T15:10:14.356Z,69.60
2018-06-11T15:12:45.004Z,69.40
2018-06-11T15:15:18.685Z,69.40
2018-06-11T15:17:48.542Z,70.10
2018-06-11T15:20:17.734Z,68.00
2018-06-11T15:22:47.277Z,67.70
2018-06-11T15:25:16.076Z,68.00
2018-06-11T15:27:44.881Z,67.70
2018-06-11T15:30:13.846Z,67.60
2018-06-11T15:32:42.946Z,67.50
2018-06-11T15:35:12.716Z,67.50
2018-06-11T15:37:41.436Z,66.40
2018-06-11T15:40:12.766Z,66.10
2018-06-11T15:42:43.895Z,66.80
2018-06-11T15:45:16.160Z,67.00
2018-06-11T15:47:45.083Z,67.20
2018-06-11T15:50:14.818Z,66.80
2018-06-11T15:52:43.797Z,66.90
2018-06-11T15:55:12.612Z,66.70
2018-06-11T15:57:41.613Z,66.40
2018-06-11T16:00:10.571Z,65.30
2018-06-11T16:02:39.534Z,65.60
2018-06-11T16:05:08.645Z,65.70
2018-06-11T16:07:37.486Z,66.00
2018-06-11T16:10:06.270Z,66.40
2018-06-11T16:12:35.409Z,65.80
2018-06-11T16:15:04.238Z,65.00
2018-06-11T16:17:33.221Z,65.10
2018-06-11T16:20:02.053Z,65.00
2018-06-11T16:22:30.773Z,65.20
2018-06-11T16:24:59.790Z,65.50
2018-06-11T16:27:28.447Z,65.80
2018-06-11T16:29:57.211Z,66.10
2018-06-11T16:32:25.958Z,66.70
2018-06-11T16:34:54.718Z,67.60
2018-06-11T16:37:23.574Z,67.90
2018-06-11T16:39:52.294Z,67.80
2018-06-11T16:42:21.184Z,68.70
2018-06-11T16:44:49.977Z,68.00
2018-06-11T16:47:18.775Z,68.00
2018-06-11T16:49:48.393Z,68.00
2018-06-11T16:52:17.146Z,68.40
2018-06-11T16:54:45.929Z,67.90
2018-06-11T16:57:14.561Z,67.60
2018-06-11T16:59:43.595Z,67.50
2018-06-11T17:02:12.236Z,67.50
2018-06-11T17:04:40.877Z,67.80
2018-06-11T17:07:09.701Z,68.10
2018-06-11T17:09:38.350Z,67.90
2018-06-11T17:12:07.085Z,67.80
2018-06-11T17:14:35.875Z,68.20
2018-06-11T17:17:04.810Z,68.00
2018-06-11T17:19:33.550Z,68.50
2018-06-11T17:22:02.493Z,67.60
2018-06-11T17:24:31.196Z,67.90
2018-06-11T17:27:00.131Z,67.90
2018-06-11T17:29:28.902Z,68.10
2018-06-11T17:31:57.666Z,67.90
2018-06-11T17:34:26.356Z,67.70
2018-06-11T17:36:55.111Z,67.70
2018-06-11T17:39:23.956Z,67.70
2018-06-11T17:41:52.787Z,68.00
2018-06-11T17:44:21.750Z,68.50
2018-06-11T17:46:50.642Z,68.80
2018-06-11T17:49:19.464Z,68.30
2018-06-11T17:51:48.179Z,68.80
2018-06-11T17:54:16.929Z,69.90
2018-06-11T17:56:45.676Z,69.20
2018-06-11T17:59:14.441Z,69.40
2018-06-11T18:01:43.372Z,69.90
2018-06-11T18:04:12.219Z,69.60
2018-06-11T18:06:40.920Z,69.50
2018-06-11T18:09:10.337Z,69.70
2018-06-11T18:11:39.014Z,69.30
2018-06-11T18:14:07.708Z,69.80
2018-06-11T18:16:36.515Z,69.90
2018-06-11T18:19:05.226Z,69.70
2018-06-11T18:21:33.915Z,69.80
2018-06-11T18:24:02.735Z,69.70
2018-06-11T18:26:31.544Z,69.70
2018-06-11T18:29:00.496Z,69.60
2018-06-11T18:31:29.253Z,69.70
2018-06-11T18:33:58.259Z,70.00
2018-06-11T18:36:27.048Z,69.40
2018-06-11T18:38:55.725Z,69.00
2018-06-11T18:41:24.393Z,69.00
2018-06-11T18:43:53.397Z,68.80
2018-06-11T18:46:22.243Z,69.10
2018-06-11T18:48:51.113Z,68.90
2018-06-11T18:51:19.984Z,69.00
2018-06-11T18:53:48.743Z,69.00
2018-06-11T18:56:17.672Z,69.30
2018-06-11T18:58:46.865Z,69.00
2018-06-11T19:01:15.840Z,68.60
2018-06-11T19:03:44.669Z,68.70
2018-06-11T19:06:13.529Z,69.10
2018-06-11T19:08:42.240Z,69.00
2018-06-11T19:11:10.931Z,69.40
2018-06-11T19:13:39.719Z,69.60
2018-06-11T19:16:08.429Z,69.90
2018-06-11T19:18:37.253Z,69.20
2018-06-11T19:21:06.114Z,68.90
2018-06-11T19:23:34.763Z,69.00
2018-06-11T19:26:03.501Z,69.50
2018-06-11T19:28:32.194Z,69.70
2018-06-11T19:31:01.106Z,69.80
2018-06-11T19:33:30.044Z,70.10
2018-06-11T19:35:59.000Z,70.50
2018-06-11T19:38:28.031Z,71.00
2018-06-11T19:40:56.779Z,72.00
2018-06-11T19:43:29.217Z,71.00
2018-06-11T19:45:58.042Z,71.30
2018-06-11T19:48:26.773Z,71.10
2018-06-11T19:50:55.644Z,71.10
2018-06-11T19:53:24.713Z,70.90
2018-06-11T19:55:53.474Z,71.20
2018-06-11T19:58:22.211Z,71.50
2018-06-11T20:00:51.282Z,71.90
2018-06-11T20:03:20.026Z,71.70
2018-06-11T20:05:48.811Z,72.10
2018-06-11T20:08:17.592Z,72.20
2018-06-11T20:10:46.377Z,72.30
2018-06-11T20:13:15.212Z,72.30
2018-06-11T20:15:45.028Z,72.80
2018-06-11T20:18:14.343Z,72.30
2018-06-11T20:20:43.137Z,72.20
2018-06-11T20:23:11.929Z,72.70
2018-06-11T20:25:40.801Z,72.80
2018-06-11T20:28:09.509Z,72.80
2018-06-11T20:30:38.270Z,73.30
2018-06-11T20:33:07.009Z,74.30
2018-06-11T20:35:35.772Z,74.60
2018-06-11T20:38:04.753Z,74.40
2018-06-11T20:40:33.429Z,74.20
2018-06-11T20:43:02.327Z,74.50
2018-06-11T20:45:31.445Z,74.30
2018-06-11T20:48:00.231Z,74.40
2018-06-11T20:50:29.155Z,74.70
2018-06-11T20:55:27.500Z,74.90
2018-06-11T20:57:56.378Z,74.90
2018-06-11T21:00:25.300Z,75.00
2018-06-11T21:02:54.278Z,75.40
2018-06-11T21:05:22.991Z,75.50
2018-06-11T21:07:52.688Z,75.50
2018-06-11T21:10:21.606Z,75.40
2018-06-11T21:12:50.661Z,75.70
2018-06-11T21:15:19.585Z,76.60
2018-06-11T21:17:48.444Z,76.70
2018-06-11T21:20:17.088Z,77.10
2018-06-11T21:22:46.031Z,77.10
2018-06-11T21:25:14.774Z,77.20
2018-06-11T21:27:43.504Z,77.50
2018-06-11T21:30:12.199Z,77.40
2018-06-11T21:32:40.901Z,77.40
2018-06-11T21:35:09.866Z,77.40
2018-06-11T21:37:38.727Z,77.70
2018-06-11T21:40:07.523Z,77.80
2018-06-11T21:42:36.607Z,78.50
2018-06-11T21:45:05.532Z,78.60
2018-06-11T21:47:34.558Z,78.90
2018-06-11T21:50:03.519Z,79.00
2018-06-11T21:52:32.519Z,80.20
2018-06-11T21:55:01.400Z,79.20
2018-06-11T21:57:30.499Z,79.30
2018-06-11T21:59:59.296Z,79.60
2018-06-11T22:02:28.056Z,80.00
2018-06-11T22:04:56.866Z,80.00
2018-06-11T22:07:25.706Z,79.70
2018-06-11T22:09:54.542Z,80.10
2018-06-11T22:12:23.541Z,80.50
2018-06-11T22:14:52.244Z,80.30
2018-06-11T22:17:21.148Z,78.80
2018-06-11T22:19:50.109Z,78.70
2018-06-11T22:22:18.809Z,78.40
2018-06-11T22:24:47.583Z,78.00
2018-06-11T22:27:16.537Z,77.80
2018-06-11T22:29:45.366Z,78.40
2018-06-11T22:32:14.498Z,78.40
2018-06-11T22:34:43.190Z,78.10
2018-06-11T22:37:12.138Z,78.60
2018-06-11T22:39:41.050Z,78.90
2018-06-11T22:42:09.900Z,79.40
2018-06-11T22:44:38.721Z,79.70
2018-06-11T22:47:07.709Z,80.30
2018-06-11T22:49:36.643Z,80.40
2018-06-11T22:52:05.248Z,80.70
2018-06-11T22:54:34.008Z,81.20
2018-06-11T22:57:03.001Z,81.00
2018-06-11T22:59:31.868Z,81.90
2018-06-11T23:02:00.644Z,82.10
2018-06-11T23:04:29.535Z,81.30
2018-06-11T23:06:58.528Z,81.40
2018-06-11T23:09:27.459Z,81.10
2018-06-11T23:11:56.241Z,80.40
2018-06-11T23:14:25.102Z,80.50
2018-06-11T23:16:53.955Z,79.60
2018-06-11T23:19:22.817Z,79.10
2018-06-11T23:21:51.621Z,79.20
2018-06-11T23:26:48.959Z,78.60
2018-06-11T23:29:17.696Z,78.20
2018-06-11T23:31:46.339Z,78.90
2018-06-11T23:34:15.307Z,78.90
2018-06-11T23:36:44.362Z,78.10
2018-06-11T23:39:13.503Z,77.60
2018-06-11T23:41:42.371Z,77.10
2018-06-11T23:44:11.231Z,77.40
2018-06-11T23:46:40.070Z,76.90
2018-06-11T23:49:08.748Z,77.20
2018-06-11T23:51:37.520Z,77.20
2018-06-11T23:54:06.467Z,77.60
2018-06-11T23:56:35.371Z,77.10
2018-06-11T23:59:04.262Z,77.50
